sensor_id;sensor_type;location;lat;lon;timestamp;pressure;altitude;pressure_sealevel;temperature;humidity
18504;BME280;9381;54.244;10.074;2023-09-19T00:01:33;99639.63;;;19.06;100.00
18504;BME280;9381;54.244;10.074;2023-09-19T00:06:34;99646.13;;;19.10;100.00
18504;BME280;9381;54.244;10.074;2023-09-19T00:11:35;99638.88;;;19.19;100.00
18504;BME280;9381;54.244;10.074;2023-09-19T00:16:35;99647.91;;;19.01;100.00
18504;BME280;9381;54.244;10.074;2023-09-19T00:21:36;99633.91;;;19.03;100.00
18504;BME280;9381;54.244;10.074;2023-09-19T00:26:37;99643.38;;;19.10;100.00
18504;BME280;9381;54.244;10.074;2023-09-19T00:31:38;99658.50;;;19.08;100.00
18504;BME280;9381;54.244;10.074;2023-09-19T00:36:38;99654.88;;;19.12;100.00
18504;BME280;9381;54.244;10.074;2023-09-19T00:41:39;99667.63;;;19.03;100.00
18504;BME280;9381;54.244;10.074;2023-09-19T00:46:40;99653.22;;;19.11;100.00
18504;BME280;9381;54.244;10.074;2023-09-19T00:51:42;99649.28;;;19.22;100.00
18504;BME280;9381;54.244;10.074;2023-09-19T00:56:46;99654.44;;;19.24;100.00
18504;BME280;9381;54.244;10.074;2023-09-19T01:01:47;99658.00;;;19.24;100.00
18504;BME280;9381;54.244;10.074;2023-09-19T01:06:53;99669.91;;;19.15;100.00
18504;BME280;9381;54.244;10.074;2023-09-19T01:11:58;99675.03;;;19.21;100.00
18504;BME280;9381;54.244;10.074;2023-09-19T01:22:53;99680.94;;;19.28;100.00
18504;BME280;9381;54.244;10.074;2023-09-19T01:28:06;99696.44;;;19.19;100.00
18504;BME280;9381;54.244;10.074;2023-09-19T01:33:14;99699.75;;;19.16;100.00
18504;BME280;9381;54.244;10.074;2023-09-19T01:38:14;99687.78;;;19.12;100.00
18504;BME280;9381;54.244;10.074;2023-09-19T01:43:27;99700.50;;;19.03;100.00
18504;BME280;9381;54.244;10.074;2023-09-19T01:48:53;99697.22;;;19.01;100.00
18504;BME280;9381;54.244;10.074;2023-09-19T01:54:11;99698.66;;;18.99;100.00
18504;BME280;9381;54.244;10.074;2023-09-19T01:59:14;99715.03;;;18.85;100.00
18504;BME280;9381;54.244;10.074;2023-09-19T02:04:16;99709.06;;;18.78;100.00
18504;BME280;9381;54.244;10.074;2023-09-19T02:09:16;99715.59;;;18.82;100.00
18504;BME280;9381;54.244;10.074;2023-09-19T02:14:17;99717.31;;;18.55;100.00
18504;BME280;9381;54.244;10.074;2023-09-19T02:19:17;99720.75;;;18.42;100.00
18504;BME280;9381;54.244;10.074;2023-09-19T02:24:17;99720.44;;;18.48;100.00
18504;BME280;9381;54.244;10.074;2023-09-19T02:29:19;99724.84;;;18.44;100.00
18504;BME280;9381;54.244;10.074;2023-09-19T02:34:19;99731.56;;;18.28;100.00
18504;BME280;9381;54.244;10.074;2023-09-19T02:39:20;99722.22;;;18.34;100.00
18504;BME280;9381;54.244;10.074;2023-09-19T02:44:20;99717.56;;;18.35;100.00
18504;BME280;9381;54.244;10.074;2023-09-19T02:49:21;99718.19;;;18.27;100.00
18504;BME280;9381;54.244;10.074;2023-09-19T02:54:21;99713.97;;;18.39;100.00
18504;BME280;9381;54.244;10.074;2023-09-19T02:59:22;99724.25;;;18.47;100.00
18504;BME280;9381;54.244;10.074;2023-09-19T03:04:22;99719.03;;;18.22;100.00
18504;BME280;9381;54.244;10.074;2023-09-19T03:09:22;99729.69;;;18.29;100.00
18504;BME280;9381;54.244;10.074;2023-09-19T03:14:23;99752.16;;;18.21;100.00
18504;BME280;9381;54.244;10.074;2023-09-19T03:19:23;99767.72;;;18.30;100.00
18504;BME280;9381;54.244;10.074;2023-09-19T03:24:24;99770.50;;;18.49;100.00
18504;BME280;9381;54.244;10.074;2023-09-19T03:29:25;99772.69;;;18.23;100.00
18504;BME280;9381;54.244;10.074;2023-09-19T03:34:25;99777.19;;;18.09;100.00
18504;BME280;9381;54.244;10.074;2023-09-19T03:39:26;99768.75;;;18.34;100.00
18504;BME280;9381;54.244;10.074;2023-09-19T03:44:26;99765.09;;;18.15;100.00
18504;BME280;9381;54.244;10.074;2023-09-19T03:49:26;99766.59;;;18.03;100.00
18504;BME280;9381;54.244;10.074;2023-09-19T03:54:27;99791.28;;;17.60;100.00
18504;BME280;9381;54.244;10.074;2023-09-19T03:59:27;99770.94;;;17.76;100.00
18504;BME280;9381;54.244;10.074;2023-09-19T04:04:29;99774.03;;;17.64;100.00
18504;BME280;9381;54.244;10.074;2023-09-19T04:09:29;99785.81;;;17.60;100.00
18504;BME280;9381;54.244;10.074;2023-09-19T04:14:30;99794.09;;;17.50;100.00
18504;BME280;9381;54.244;10.074;2023-09-19T04:19:30;99796.34;;;17.38;100.00
18504;BME280;9381;54.244;10.074;2023-09-19T04:24:30;99803.44;;;17.44;100.00
18504;BME280;9381;54.244;10.074;2023-09-19T04:29:32;99804.69;;;17.13;100.00
18504;BME280;9381;54.244;10.074;2023-09-19T04:34:33;99822.19;;;17.07;100.00
18504;BME280;9381;54.244;10.074;2023-09-19T04:39:34;99820.81;;;17.09;100.00
18504;BME280;9381;54.244;10.074;2023-09-19T04:44:34;99830.97;;;16.99;100.00
18504;BME280;9381;54.244;10.074;2023-09-19T04:49:36;99839.63;;;17.11;100.00
18504;BME280;9381;54.244;10.074;2023-09-19T04:54:36;99842.84;;;17.28;100.00
18504;BME280;9381;54.244;10.074;2023-09-19T04:59:37;99836.38;;;17.09;100.00
18504;BME280;9381;54.244;10.074;2023-09-19T05:04:38;99842.69;;;17.09;100.00
18504;BME280;9381;54.244;10.074;2023-09-19T05:09:38;99839.09;;;17.14;100.00
18504;BME280;9381;54.244;10.074;2023-09-19T05:14:39;99848.47;;;16.93;100.00
18504;BME280;9381;54.244;10.074;2023-09-19T05:19:40;99867.94;;;16.71;100.00
18504;BME280;9381;54.244;10.074;2023-09-19T05:24:40;99858.63;;;16.82;100.00
18504;BME280;9381;54.244;10.074;2023-09-19T05:29:44;99865.97;;;16.87;99.58
18504;BME280;9381;54.244;10.074;2023-09-19T05:34:44;99867.06;;;16.81;99.07
18504;BME280;9381;54.244;10.074;2023-09-19T05:39:45;99872.00;;;16.74;99.50
18504;BME280;9381;54.244;10.074;2023-09-19T05:44:45;99870.97;;;16.60;99.19
18504;BME280;9381;54.244;10.074;2023-09-19T05:49:45;99893.34;;;16.52;98.95
18504;BME280;9381;54.244;10.074;2023-09-19T05:54:46;99888.97;;;16.61;98.45
18504;BME280;9381;54.244;10.074;2023-09-19T05:59:46;99883.16;;;16.87;97.13
18504;BME280;9381;54.244;10.074;2023-09-19T06:04:47;99870.38;;;16.78;95.56
18504;BME280;9381;54.244;10.074;2023-09-19T06:09:48;99884.06;;;16.68;95.99
18504;BME280;9381;54.244;10.074;2023-09-19T06:14:48;99894.38;;;16.81;95.46
18504;BME280;9381;54.244;10.074;2023-09-19T06:19:49;99899.28;;;16.94;95.30
18504;BME280;9381;54.244;10.074;2023-09-19T06:24:50;99905.34;;;16.76;95.81
18504;BME280;9381;54.244;10.074;2023-09-19T06:29:50;99912.34;;;17.02;95.34
18504;BME280;9381;54.244;10.074;2023-09-19T06:34:52;99911.84;;;16.95;95.98
18504;BME280;9381;54.244;10.074;2023-09-19T06:39:55;99906.31;;;17.15;94.91
18504;BME280;9381;54.244;10.074;2023-09-19T06:44:57;99918.09;;;16.95;93.88
18504;BME280;9381;54.244;10.074;2023-09-19T06:49:57;99920.47;;;17.32;92.37
18504;BME280;9381;54.244;10.074;2023-09-19T06:54:57;99929.75;;;17.26;92.01
18504;BME280;9381;54.244;10.074;2023-09-19T06:59:57;99931.78;;;16.90;92.67
18504;BME280;9381;54.244;10.074;2023-09-19T07:04:58;99941.06;;;16.99;92.33
18504;BME280;9381;54.244;10.074;2023-09-19T07:09:58;99942.38;;;17.22;91.35
18504;BME280;9381;54.244;10.074;2023-09-19T07:14:58;99942.34;;;17.27;91.13
18504;BME280;9381;54.244;10.074;2023-09-19T07:19:59;99936.59;;;17.23;90.11
18504;BME280;9381;54.244;10.074;2023-09-19T07:24:59;99953.22;;;17.47;90.01
18504;BME280;9381;54.244;10.074;2023-09-19T07:30:00;99961.47;;;17.37;90.88
18504;BME280;9381;54.244;10.074;2023-09-19T07:35:00;99953.19;;;17.52;89.42
18504;BME280;9381;54.244;10.074;2023-09-19T07:40:00;99966.34;;;17.35;90.22
18504;BME280;9381;54.244;10.074;2023-09-19T07:45:01;99968.03;;;17.26;90.07
18504;BME280;9381;54.244;10.074;2023-09-19T07:50:02;99982.25;;;17.23;89.30
18504;BME280;9381;54.244;10.074;2023-09-19T07:55:03;99973.50;;;17.31;89.75
18504;BME280;9381;54.244;10.074;2023-09-19T08:00:09;99979.22;;;17.29;88.86
18504;BME280;9381;54.244;10.074;2023-09-19T08:05:11;99994.22;;;17.52;88.17
18504;BME280;9381;54.244;10.074;2023-09-19T08:10:11;99972.34;;;17.52;88.72
18504;BME280;9381;54.244;10.074;2023-09-19T08:15:17;99977.16;;;17.75;88.19
18504;BME280;9381;54.244;10.074;2023-09-19T08:20:21;99971.25;;;17.48;88.07
18504;BME280;9381;54.244;10.074;2023-09-19T08:25:22;99974.25;;;17.51;88.65
18504;BME280;9381;54.244;10.074;2023-09-19T08:30:24;99965.19;;;17.61;88.09
18504;BME280;9381;54.244;10.074;2023-09-19T08:35:24;99984.97;;;17.96;87.88
18504;BME280;9381;54.244;10.074;2023-09-19T08:40:24;99982.00;;;17.88;87.71
18504;BME280;9381;54.244;10.074;2023-09-19T08:45:27;99984.22;;;17.81;87.85
18504;BME280;9381;54.244;10.074;2023-09-19T08:50:29;99965.19;;;17.61;88.46
18504;BME280;9381;54.244;10.074;2023-09-19T08:55:31;99981.81;;;17.74;89.73
18504;BME280;9381;54.244;10.074;2023-09-19T09:00:32;99988.34;;;18.31;86.73
18504;BME280;9381;54.244;10.074;2023-09-19T09:05:35;99968.84;;;17.94;87.45
18504;BME280;9381;54.244;10.074;2023-09-19T09:10:37;99970.13;;;18.07;88.65
18504;BME280;9381;54.244;10.074;2023-09-19T09:15:38;100003.41;;;18.24;87.12
18504;BME280;9381;54.244;10.074;2023-09-19T09:20:38;99996.50;;;17.88;88.52
18504;BME280;9381;54.244;10.074;2023-09-19T09:31:02;100010.78;;;17.75;89.40
18504;BME280;9381;54.244;10.074;2023-09-19T09:36:07;100008.53;;;17.92;88.55
18504;BME280;9381;54.244;10.074;2023-09-19T09:41:09;100020.66;;;18.24;88.21
18504;BME280;9381;54.244;10.074;2023-09-19T09:51:31;100018.09;;;18.43;85.98
18504;BME280;9381;54.244;10.074;2023-09-19T09:56:31;100025.88;;;18.64;85.16
18504;BME280;9381;54.244;10.074;2023-09-19T10:01:47;100012.47;;;18.96;83.24
18504;BME280;9381;54.244;10.074;2023-09-19T10:06:49;100024.97;;;19.02;82.96
18504;BME280;9381;54.244;10.074;2023-09-19T10:12:03;100009.69;;;19.53;79.98
18504;BME280;9381;54.244;10.074;2023-09-19T10:17:05;100015.22;;;19.48;78.96
18504;BME280;9381;54.244;10.074;2023-09-19T10:22:06;100024.63;;;19.66;77.94
18504;BME280;9381;54.244;10.074;2023-09-19T10:27:08;100023.56;;;19.38;77.24
18504;BME280;9381;54.244;10.074;2023-09-19T10:32:09;100033.66;;;19.14;78.83
18504;BME280;9381;54.244;10.074;2023-09-19T10:37:12;100026.38;;;19.57;79.10
18504;BME280;9381;54.244;10.074;2023-09-19T10:42:17;100031.66;;;19.48;77.13
18504;BME280;9381;54.244;10.074;2023-09-19T10:47:19;100036.50;;;19.04;78.25
18504;BME280;9381;54.244;10.074;2023-09-19T10:52:23;100039.00;;;19.29;76.67
18504;BME280;9381;54.244;10.074;2023-09-19T10:57:25;100026.50;;;20.12;74.56
18504;BME280;9381;54.244;10.074;2023-09-19T11:02:27;100046.97;;;19.54;73.10
18504;BME280;9381;54.244;10.074;2023-09-19T11:07:28;100030.44;;;20.25;70.78
18504;BME280;9381;54.244;10.074;2023-09-19T11:17:41;100033.81;;;20.40;67.66
18504;BME280;9381;54.244;10.074;2023-09-19T11:33:27;100070.53;;;19.55;67.79
18504;BME280;9381;54.244;10.074;2023-09-19T11:49:13;100023.56;;;20.27;65.20
18504;BME280;9381;54.244;10.074;2023-09-19T11:54:15;100035.00;;;20.34;65.44
18504;BME280;9381;54.244;10.074;2023-09-19T12:04:42;100032.16;;;20.39;66.64
18504;BME280;9381;54.244;10.074;2023-09-19T12:09:49;100024.59;;;20.68;67.42
18504;BME280;9381;54.244;10.074;2023-09-19T12:14:50;100020.91;;;20.91;68.35
18504;BME280;9381;54.244;10.074;2023-09-19T12:19:52;100033.03;;;20.90;68.26
18504;BME280;9381;54.244;10.074;2023-09-19T12:24:52;100039.81;;;20.24;68.55
18504;BME280;9381;54.244;10.074;2023-09-19T12:29:54;100020.44;;;20.15;70.57
18504;BME280;9381;54.244;10.074;2023-09-19T12:34:55;100025.84;;;20.20;70.92
18504;BME280;9381;54.244;10.074;2023-09-19T12:40:07;100020.59;;;20.42;70.96
18504;BME280;9381;54.244;10.074;2023-09-19T12:45:22;100028.31;;;20.40;68.63
18504;BME280;9381;54.244;10.074;2023-09-19T12:50:22;100033.13;;;20.30;68.04
18504;BME280;9381;54.244;10.074;2023-09-19T12:55:30;100004.34;;;20.27;68.66
18504;BME280;9381;54.244;10.074;2023-09-19T13:00:39;100015.25;;;20.14;68.66
18504;BME280;9381;54.244;10.074;2023-09-19T13:06:00;99994.47;;;20.26;69.18
18504;BME280;9381;54.244;10.074;2023-09-19T13:16:12;99990.06;;;20.44;68.22
18504;BME280;9381;54.244;10.074;2023-09-19T13:21:30;99981.16;;;20.52;68.71
18504;BME280;9381;54.244;10.074;2023-09-19T13:26:38;99974.22;;;21.05;68.65
18504;BME280;9381;54.244;10.074;2023-09-19T13:31:39;99966.34;;;20.66;68.32
18504;BME280;9381;54.244;10.074;2023-09-19T13:36:41;99958.53;;;20.92;67.75
18504;BME280;9381;54.244;10.074;2023-09-19T13:41:47;99968.47;;;20.88;66.67
18504;BME280;9381;54.244;10.074;2023-09-19T13:46:48;99957.69;;;20.91;67.04
18504;BME280;9381;54.244;10.074;2023-09-19T13:51:48;99953.94;;;20.87;67.36
18504;BME280;9381;54.244;10.074;2023-09-19T13:56:48;99937.47;;;20.82;69.12
18504;BME280;9381;54.244;10.074;2023-09-19T14:01:51;99911.22;;;20.44;67.60
18504;BME280;9381;54.244;10.074;2023-09-19T14:06:53;99922.34;;;20.53;68.01
18504;BME280;9381;54.244;10.074;2023-09-19T14:11:53;99901.53;;;20.33;69.69
18504;BME280;9381;54.244;10.074;2023-09-19T14:16:54;99911.78;;;20.28;69.12
18504;BME280;9381;54.244;10.074;2023-09-19T14:21:55;99904.50;;;20.37;69.14
18504;BME280;9381;54.244;10.074;2023-09-19T14:26:55;99895.44;;;20.36;68.98
18504;BME280;9381;54.244;10.074;2023-09-19T14:31:56;99879.81;;;20.18;69.05
18504;BME280;9381;54.244;10.074;2023-09-19T14:36:57;99878.84;;;20.09;69.97
18504;BME280;9381;54.244;10.074;2023-09-19T14:41:58;99880.59;;;20.05;70.75
18504;BME280;9381;54.244;10.074;2023-09-19T14:46:58;99904.97;;;19.88;70.23
18504;BME280;9381;54.244;10.074;2023-09-19T14:51:59;99892.19;;;19.97;70.78
18504;BME280;9381;54.244;10.074;2023-09-19T14:56:59;99886.28;;;20.09;71.24
18504;BME280;9381;54.244;10.074;2023-09-19T15:02:08;99900.94;;;19.99;71.50
18504;BME280;9381;54.244;10.074;2023-09-19T15:07:10;99913.84;;;19.80;71.95
18504;BME280;9381;54.244;10.074;2023-09-19T15:12:10;99888.03;;;19.81;72.29
18504;BME280;9381;54.244;10.074;2023-09-19T15:17:14;99882.34;;;19.96;72.46
18504;BME280;9381;54.244;10.074;2023-09-19T15:22:16;99887.44;;;19.84;72.67
18504;BME280;9381;54.244;10.074;2023-09-19T15:27:16;99857.34;;;19.79;74.37
18504;BME280;9381;54.244;10.074;2023-09-19T15:32:20;99868.94;;;19.76;74.94
18504;BME280;9381;54.244;10.074;2023-09-19T15:37:20;99868.22;;;19.84;74.69
18504;BME280;9381;54.244;10.074;2023-09-19T15:42:20;99861.78;;;19.75;75.25
18504;BME280;9381;54.244;10.074;2023-09-19T15:47:21;99863.13;;;19.59;76.14
18504;BME280;9381;54.244;10.074;2023-09-19T15:52:21;99846.31;;;19.66;76.11
18504;BME280;9381;54.244;10.074;2023-09-19T15:57:22;99849.78;;;19.71;76.83
18504;BME280;9381;54.244;10.074;2023-09-19T16:02:23;99852.47;;;19.76;76.67
18504;BME280;9381;54.244;10.074;2023-09-19T16:07:25;99847.91;;;19.85;76.79
18504;BME280;9381;54.244;10.074;2023-09-19T16:12:26;99852.06;;;19.64;77.28
18504;BME280;9381;54.244;10.074;2023-09-19T16:17:26;99853.88;;;19.74;77.21
18504;BME280;9381;54.244;10.074;2023-09-19T16:22:27;99847.25;;;19.75;77.50
18504;BME280;9381;54.244;10.074;2023-09-19T16:27:27;99863.28;;;19.86;77.39
18504;BME280;9381;54.244;10.074;2023-09-19T16:32:28;99867.50;;;19.79;77.77
18504;BME280;9381;54.244;10.074;2023-09-19T16:37:28;99834.78;;;19.82;77.78
18504;BME280;9381;54.244;10.074;2023-09-19T16:42:28;99835.84;;;19.86;77.54
18504;BME280;9381;54.244;10.074;2023-09-19T16:47:29;99829.53;;;19.86;77.25
18504;BME280;9381;54.244;10.074;2023-09-19T16:52:29;99853.94;;;20.06;76.32
18504;BME280;9381;54.244;10.074;2023-09-19T16:57:29;99872.03;;;19.88;77.27
18504;BME280;9381;54.244;10.074;2023-09-19T17:02:31;99851.09;;;19.92;77.26
18504;BME280;9381;54.244;10.074;2023-09-19T17:07:31;99845.78;;;19.82;77.56
18504;BME280;9381;54.244;10.074;2023-09-19T17:12:32;99838.50;;;19.91;77.55
18504;BME280;9381;54.244;10.074;2023-09-19T17:17:32;99841.16;;;19.96;77.22
18504;BME280;9381;54.244;10.074;2023-09-19T17:22:34;99840.28;;;19.82;77.25
18504;BME280;9381;54.244;10.074;2023-09-19T17:27:35;99844.44;;;19.98;76.97
18504;BME280;9381;54.244;10.074;2023-09-19T17:32:36;99840.44;;;20.09;77.20
18504;BME280;9381;54.244;10.074;2023-09-19T17:37:36;99835.88;;;20.18;76.49
18504;BME280;9381;54.244;10.074;2023-09-19T17:42:39;99863.50;;;20.08;76.94
18504;BME280;9381;54.244;10.074;2023-09-19T17:47:43;99862.81;;;19.98;77.20
18504;BME280;9381;54.244;10.074;2023-09-19T17:52:43;99875.81;;;20.11;77.23
18504;BME280;9381;54.244;10.074;2023-09-19T17:57:43;99868.00;;;19.99;77.76
18504;BME280;9381;54.244;10.074;2023-09-19T18:02:45;99878.38;;;20.02;77.94
18504;BME280;9381;54.244;10.074;2023-09-19T18:07:45;99876.31;;;19.94;78.46
18504;BME280;9381;54.244;10.074;2023-09-19T18:12:48;99872.19;;;20.15;77.78
18504;BME280;9381;54.244;10.074;2023-09-19T18:17:48;99886.38;;;20.04;78.75
18504;BME280;9381;54.244;10.074;2023-09-19T18:22:48;99882.91;;;19.93;79.43
18504;BME280;9381;54.244;10.074;2023-09-19T18:27:48;99888.44;;;20.12;79.21
18504;BME280;9381;54.244;10.074;2023-09-19T18:32:49;99886.09;;;20.00;80.80
18504;BME280;9381;54.244;10.074;2023-09-19T18:37:51;99901.53;;;19.59;83.59
18504;BME280;9381;54.244;10.074;2023-09-19T18:42:52;99883.81;;;19.70;83.66
18504;BME280;9381;54.244;10.074;2023-09-19T18:47:53;99899.63;;;19.78;83.41
18504;BME280;9381;54.244;10.074;2023-09-19T18:52:53;99888.19;;;19.71;81.89
18504;BME280;9381;54.244;10.074;2023-09-19T18:57:53;99884.28;;;19.77;80.85
18504;BME280;9381;54.244;10.074;2023-09-19T19:02:54;99896.06;;;19.96;80.21
18504;BME280;9381;54.244;10.074;2023-09-19T19:07:54;99888.22;;;20.08;79.75
18504;BME280;9381;54.244;10.074;2023-09-19T19:12:57;99875.72;;;19.97;80.18
18504;BME280;9381;54.244;10.074;2023-09-19T19:17:57;99891.00;;;20.03;79.75
18504;BME280;9381;54.244;10.074;2023-09-19T19:22:58;99887.59;;;20.11;79.21
18504;BME280;9381;54.244;10.074;2023-09-19T19:27:59;99887.44;;;20.21;79.16
18504;BME280;9381;54.244;10.074;2023-09-19T19:32:59;99902.06;;;20.17;79.43
18504;BME280;9381;54.244;10.074;2023-09-19T19:37:59;99901.44;;;20.06;79.88
18504;BME280;9381;54.244;10.074;2023-09-19T19:43:02;99899.41;;;20.12;80.41
18504;BME280;9381;54.244;10.074;2023-09-19T19:48:03;99907.59;;;20.30;79.66
18504;BME280;9381;54.244;10.074;2023-09-19T19:53:03;99944.25;;;20.02;81.51
18504;BME280;9381;54.244;10.074;2023-09-19T19:58:04;99917.22;;;20.14;81.81
18504;BME280;9381;54.244;10.074;2023-09-19T20:03:04;99921.88;;;19.95;84.19
18504;BME280;9381;54.244;10.074;2023-09-19T20:08:05;99924.09;;;19.93;85.67
18504;BME280;9381;54.244;10.074;2023-09-19T20:13:06;99927.06;;;19.78;87.48
18504;BME280;9381;54.244;10.074;2023-09-19T20:18:06;99922.00;;;19.85;87.58
18504;BME280;9381;54.244;10.074;2023-09-19T20:23:13;99934.63;;;19.86;87.35
18504;BME280;9381;54.244;10.074;2023-09-19T20:28:15;99920.09;;;19.67;88.55
18504;BME280;9381;54.244;10.074;2023-09-19T20:33:18;99923.06;;;19.89;87.87
18504;BME280;9381;54.244;10.074;2023-09-19T20:38:18;99903.41;;;20.01;86.91
18504;BME280;9381;54.244;10.074;2023-09-19T20:43:19;99902.66;;;19.95;87.59
18504;BME280;9381;54.244;10.074;2023-09-19T20:48:19;99905.31;;;20.00;87.04
18504;BME280;9381;54.244;10.074;2023-09-19T20:53:19;99898.44;;;20.03;87.79
18504;BME280;9381;54.244;10.074;2023-09-19T20:58:20;99898.25;;;19.94;88.12
18504;BME280;9381;54.244;10.074;2023-09-19T21:03:20;99901.63;;;19.73;89.02
18504;BME280;9381;54.244;10.074;2023-09-19T21:08:21;99908.81;;;19.87;88.23
18504;BME280;9381;54.244;10.074;2023-09-19T21:13:21;99891.31;;;20.02;86.82
18504;BME280;9381;54.244;10.074;2023-09-19T21:18:21;99889.94;;;20.04;86.23
18504;BME280;9381;54.244;10.074;2023-09-19T21:23:21;99889.03;;;20.09;85.86
18504;BME280;9381;54.244;10.074;2023-09-19T21:28:22;99902.28;;;19.83;86.94
18504;BME280;9381;54.244;10.074;2023-09-19T21:33:22;99900.22;;;20.12;86.08
18504;BME280;9381;54.244;10.074;2023-09-19T21:38:23;99902.66;;;19.95;87.07
18504;BME280;9381;54.244;10.074;2023-09-19T21:43:24;99905.03;;;19.83;87.84
18504;BME280;9381;54.244;10.074;2023-09-19T21:48:24;99909.25;;;19.94;88.15
18504;BME280;9381;54.244;10.074;2023-09-19T21:53:24;99912.00;;;19.94;89.12
18504;BME280;9381;54.244;10.074;2023-09-19T21:58:25;99914.66;;;19.62;91.28
18504;BME280;9381;54.244;10.074;2023-09-19T22:03:25;99906.44;;;19.62;91.83
18504;BME280;9381;54.244;10.074;2023-09-19T22:08:26;99920.22;;;19.94;90.31
18504;BME280;9381;54.244;10.074;2023-09-19T22:13:27;99909.25;;;19.94;91.55
18504;BME280;9381;54.244;10.074;2023-09-19T22:18:29;99917.41;;;19.62;93.67
18504;BME280;9381;54.244;10.074;2023-09-19T22:23:30;99913.81;;;19.43;95.93
18504;BME280;9381;54.244;10.074;2023-09-19T22:28:36;99893.00;;;19.42;97.43
18504;BME280;9381;54.244;10.074;2023-09-19T22:33:40;99905.63;;;19.38;98.53
18504;BME280;9381;54.244;10.074;2023-09-19T22:38:41;99920.94;;;19.21;100.00
18504;BME280;9381;54.244;10.074;2023-09-19T22:43:41;99918.50;;;19.19;100.00
18504;BME280;9381;54.244;10.074;2023-09-19T22:48:48;99906.09;;;18.98;100.00
18504;BME280;9381;54.244;10.074;2023-09-19T22:53:50;99920.53;;;19.09;100.00
18504;BME280;9381;54.244;10.074;2023-09-19T22:58:59;99918.00;;;19.12;100.00
18504;BME280;9381;54.244;10.074;2023-09-19T23:04:02;99929.31;;;19.06;100.00
18504;BME280;9381;54.244;10.074;2023-09-19T23:09:11;99916.47;;;19.01;100.00
18504;BME280;9381;54.244;10.074;2023-09-19T23:14:38;99929.75;;;18.89;100.00
18504;BME280;9381;54.244;10.074;2023-09-19T23:19:42;99926.41;;;18.97;100.00
18504;BME280;9381;54.244;10.074;2023-09-19T23:24:48;99933.16;;;19.05;100.00
18504;BME280;9381;54.244;10.074;2023-09-19T23:30:12;99925.38;;;18.88;100.00
18504;BME280;9381;54.244;10.074;2023-09-19T23:35:17;99934.13;;;18.62;100.00
18504;BME280;9381;54.244;10.074;2023-09-19T23:40:21;99933.13;;;18.81;100.00
18504;BME280;9381;54.244;10.074;2023-09-19T23:45:22;99926.59;;;18.77;100.00
18504;BME280;9381;54.244;10.074;2023-09-19T23:50:26;99929.88;;;18.79;100.00
18504;BME280;9381;54.244;10.074;2023-09-19T23:55:29;99936.16;;;18.80;100.00
